Time;durP1;ratioP1;P1;durP2;ratioP2;P2;SDS_P1;SDS_P2;PMS_P1;PMS_P2;Temp;Humidity;BMP_temperature;BMP_pressure;BME280_temperature;BME280_humidity;BME280_pressure;Samples;Min_cycle;Max_cycle;Signal;HPM_P1;HPM_P2
2023/11/13 00:23:06;;;;;;;36.58;16.40;;;;;;;;;;6250772;22;20011;-96
2023/11/13 00:47:51;;;;;;;29.20;13.88;;;;;;;;;;6248535;22;20078;-96
2023/11/13 00:53:20;;;;;;;30.95;14.02;;;;;;;;;;6247905;22;20021;-93
2023/11/13 01:02:08;;;;;;;30.60;14.73;;;;;;;;;;6254542;22;20023;-96
2023/11/13 01:07:35;;;;;;;31.58;15.90;;;;;;;;;;6226571;22;20058;-96
2023/11/13 01:38:44;;;;;;;33.92;16.00;;;;;;;;;;6294307;22;20015;-96
2023/11/13 01:52:45;;;;;;;30.65;15.15;;;;;;;;;;6216770;22;20031;-93
2023/11/13 02:00:54;;;;;;;23.10;12.23;;;;;;;;;;6262471;22;20057;-92
2023/11/13 02:06:41;;;;;;;30.73;14.57;;;;;;;;;;6291553;22;20030;-92
2023/11/13 02:12:28;;;;;;;27.30;14.95;;;;;;;;;;6283880;22;20091;-96
2023/11/13 02:28:34;;;;;;;27.95;12.85;;;;;;;;;;6260992;23;20031;-94
2023/11/13 02:53:50;;;;;;;36.47;17.70;;;;;;;;;;6292901;22;20038;-96
2023/11/13 02:56:47;;;;;;;36.60;16.67;;;;;;;;;;6251821;22;20012;-96
2023/11/13 02:59:13;;;;;;;36.28;16.02;;;;;;;;;;6227920;23;20008;-93
2023/11/13 03:01:45;;;;;;;25.77;13.77;;;;;;;;;;6235966;22;20101;-96
2023/11/13 03:07:44;;;;;;;27.65;14.02;;;;;;;;;;6226150;22;20401;-96
2023/11/13 03:10:16;;;;;;;29.15;13.82;;;;;;;;;;6258214;23;20008;-93
2023/11/13 03:12:48;;;;;;;24.60;13.10;;;;;;;;;;6250880;23;20000;-93
2023/11/13 03:18:43;;;;;;;25.60;13.50;;;;;;;;;;6253029;23;20047;-94
2023/11/13 03:21:34;;;;;;;25.65;12.93;;;;;;;;;;6252446;23;20004;-96
2023/11/13 03:24:09;;;;;;;25.02;12.68;;;;;;;;;;6254746;23;20008;-96
2023/11/13 03:32:32;;;;;;;27.35;13.23;;;;;;;;;;6281034;22;20018;-96
2023/11/13 03:43:54;;;;;;;25.07;12.73;;;;;;;;;;6223925;23;20070;-96
2023/11/13 03:46:21;;;;;;;26.15;12.48;;;;;;;;;;6197745;23;20239;-93
2023/11/13 03:49:09;;;;;;;25.70;13.38;;;;;;;;;;6199177;23;20430;-96
2023/11/13 03:51:41;;;;;;;26.35;13.02;;;;;;;;;;6197672;23;20008;-96
2023/11/13 03:57:14;;;;;;;29.90;13.77;;;;;;;;;;6271465;22;20010;-92
2023/11/13 04:08:04;;;;;;;28.88;13.63;;;;;;;;;;6257286;23;20019;-96
2023/11/13 04:10:40;;;;;;;26.13;13.85;;;;;;;;;;6230348;23;20023;-96
2023/11/13 04:13:06;;;;;;;35.55;16.13;;;;;;;;;;6222728;23;20004;-93
2023/11/13 04:18:20;;;;;;;53.50;21.40;;;;;;;;;;6189724;23;20017;-96
2023/11/13 04:20:54;;;;;;;40.50;15.55;;;;;;;;;;6184191;22;20454;-92
2023/11/13 04:23:35;;;;;;;39.83;16.60;;;;;;;;;;6255609;23;20010;-96
2023/11/13 04:32:17;;;;;;;24.90;13.20;;;;;;;;;;6273280;22;20035;-96
2023/11/13 04:40:41;;;;;;;66.00;26.05;;;;;;;;;;6205717;22;20099;-93
2023/11/13 04:43:38;;;;;;;50.70;21.15;;;;;;;;;;6224072;23;20004;-96
2023/11/13 04:46:41;;;;;;;48.70;21.85;;;;;;;;;;6253333;22;20019;-96
2023/11/13 04:49:23;;;;;;;51.22;22.02;;;;;;;;;;6249900;22;20036;-96
2023/11/13 04:52:23;;;;;;;47.42;20.95;;;;;;;;;;6223152;23;20008;-96
2023/11/13 05:01:25;;;;;;;40.07;17.97;;;;;;;;;;6286659;22;20179;-96
2023/11/13 05:03:54;;;;;;;45.42;20.13;;;;;;;;;;6260705;22;20256;-91
2023/11/13 05:23:47;;;;;;;35.20;16.92;;;;;;;;;;6279767;22;20038;-92
2023/11/13 05:26:26;;;;;;;41.28;19.52;;;;;;;;;;6247651;22;20024;-93
2023/11/13 05:28:55;;;;;;;36.03;17.42;;;;;;;;;;6226068;23;20011;-93
2023/11/13 05:40:58;;;;;;;38.70;17.63;;;;;;;;;;6243743;22;20024;-92
2023/11/13 05:43:28;;;;;;;41.00;20.13;;;;;;;;;;6244125;22;20019;-93
2023/11/13 05:46:07;;;;;;;36.83;17.85;;;;;;;;;;6245726;22;20019;-94
2023/11/13 05:48:33;;;;;;;29.27;16.33;;;;;;;;;;6227313;23;20012;-94
2023/11/13 05:54:05;;;;;;;56.08;28.00;;;;;;;;;;6279943;22;20407;-93
2023/11/13 06:08:14;;;;;;;42.80;23.42;;;;;;;;;;6193310;23;20012;-92
2023/11/13 06:13:48;;;;;;;48.63;23.90;;;;;;;;;;6282156;22;20057;-93
2023/11/13 06:25:14;;;;;;;26.00;15.73;;;;;;;;;;6278457;22;20886;-94
2023/11/13 06:27:41;;;;;;;40.40;20.27;;;;;;;;;;6252222;22;20011;-94
2023/11/13 06:30:15;;;;;;;45.83;22.48;;;;;;;;;;6217914;22;20169;-96
2023/11/13 06:32:48;;;;;;;27.35;16.25;;;;;;;;;;6223346;22;20020;-93
2023/11/13 06:35:23;;;;;;;27.80;16.60;;;;;;;;;;6225859;22;20020;-96
2023/11/13 06:37:58;;;;;;;37.75;19.60;;;;;;;;;;6221660;22;20216;-92
2023/11/13 06:40:30;;;;;;;57.78;23.65;;;;;;;;;;6182024;23;20021;-93
2023/11/13 06:46:01;;;;;;;41.00;19.35;;;;;;;;;;6127079;23;20029;-93
2023/11/13 06:48:40;;;;;;;56.25;26.67;;;;;;;;;;6108398;23;20021;-93
2023/11/13 06:51:33;;;;;;;53.42;26.33;;;;;;;;;;6169438;22;20066;-94
2023/11/13 07:16:50;;;;;;;23.65;14.15;;;;;;;;;;6249448;22;20027;-93
2023/11/13 07:19:22;;;;;;;23.25;15.48;;;;;;;;;;6228984;22;20008;-95
2023/11/13 07:24:27;;;;;;;34.88;21.77;;;;;;;;;;6232384;22;20015;-92
2023/11/13 07:26:58;;;;;;;104.35;53.00;;;;;;;;;;6185316;23;20012;-92
2023/11/13 07:29:45;;;;;;;72.05;36.35;;;;;;;;;;6159714;23;20016;-93
2023/11/13 07:32:19;;;;;;;30.20;16.63;;;;;;;;;;6186443;23;20442;-92
2023/11/13 07:46:34;;;;;;;35.15;20.65;;;;;;;;;;6279831;22;20023;-92
2023/11/13 07:49:03;;;;;;;31.25;17.85;;;;;;;;;;6253077;22;20444;-91
2023/11/13 07:51:43;;;;;;;31.80;18.77;;;;;;;;;;6248398;23;20000;-92
2023/11/13 07:54:12;;;;;;;32.40;17.60;;;;;;;;;;6248757;23;20030;-95
2023/11/13 16:33:29;;;;;;;37.05;24.73;;;;;;;;;;6234933;22;20019;-93
2023/11/13 16:35:58;;;;;;;34.38;23.15;;;;;;;;;;6260851;22;20436;-94
2023/11/13 16:38:43;;;;;;;35.72;25.23;;;;;;;;;;6263128;22;20000;-96
2023/11/13 17:04:36;;;;;;;49.38;29.30;;;;;;;;;;6104580;23;20306;-95
2023/11/13 17:07:20;;;;;;;75.88;36.15;;;;;;;;;;6078267;23;20016;-93
2023/11/13 17:10:07;;;;;;;65.07;35.10;;;;;;;;;;6079737;23;20418;-93
2023/11/13 17:12:33;;;;;;;69.95;35.90;;;;;;;;;;6111495;23;20010;-93
2023/11/13 17:14:59;;;;;;;60.83;33.60;;;;;;;;;;6240655;23;20008;-95
2023/11/13 17:17:26;;;;;;;56.35;35.40;;;;;;;;;;6228589;23;20004;-94
2023/11/13 17:19:52;;;;;;;53.67;33.25;;;;;;;;;;6226470;23;20429;-95
2023/11/13 17:22:18;;;;;;;55.67;35.42;;;;;;;;;;6220058;23;20460;-94
2023/11/13 17:24:44;;;;;;;54.72;33.42;;;;;;;;;;6221936;23;20008;-93
2023/11/13 17:27:11;;;;;;;54.25;34.30;;;;;;;;;;6221886;23;20138;-93
2023/11/13 17:29:42;;;;;;;58.75;33.83;;;;;;;;;;6225187;23;20027;-94
2023/11/13 17:32:18;;;;;;;56.85;34.10;;;;;;;;;;6225915;23;20561;-96
2023/11/13 17:35:04;;;;;;;60.50;35.50;;;;;;;;;;6227313;23;20004;-96
2023/11/13 17:37:31;;;;;;;57.58;34.67;;;;;;;;;;6228970;23;20024;-95
2023/11/13 17:40:00;;;;;;;55.88;34.63;;;;;;;;;;6226073;23;20014;-96
2023/11/13 17:42:38;;;;;;;58.67;35.92;;;;;;;;;;6223185;23;20406;-96
2023/11/13 17:45:22;;;;;;;52.58;33.97;;;;;;;;;;6221608;23;20016;-95
2023/11/13 17:47:51;;;;;;;;;;;;;;;;;;6222150;23;20058;-94
2023/11/13 17:50:17;;;;;;;54.00;32.80;;;;;;;;;;6221107;23;19978;-95
2023/11/13 17:52:51;;;;;;;60.58;34.85;;;;;;;;;;6221236;23;20337;-96
2023/11/13 17:55:17;;;;;;;53.58;34.00;;;;;;;;;;6220704;23;20059;-93
2023/11/13 17:57:43;;;;;;;56.42;33.05;;;;;;;;;;6244434;22;20000;-93
2023/11/13 18:00:10;;;;;;;54.10;33.65;;;;;;;;;;6235088;23;20011;-92
2023/11/13 18:02:40;;;;;;;63.20;37.47;;;;;;;;;;6222030;23;20007;-93
2023/11/13 18:05:12;;;;;;;53.15;32.67;;;;;;;;;;6221767;23;20019;-95
2023/11/13 18:07:42;;;;;;;73.88;38.38;;;;;;;;;;6221926;23;20005;-92
2023/11/13 18:10:15;;;;;;;65.05;36.55;;;;;;;;;;6220557;23;20070;-94
2023/11/13 18:13:18;;;;;;;54.90;34.88;;;;;;;;;;6222039;23;20012;-93
2023/11/13 18:16:06;;;;;;;63.92;36.22;;;;;;;;;;6226487;23;20004;-95
2023/11/13 18:18:54;;;;;;;58.60;34.97;;;;;;;;;;6226427;23;20008;-94
2023/11/13 18:24:47;;;;;;;70.90;38.90;;;;;;;;;;6251365;23;20038;-94
2023/11/13 18:27:41;;;;;;;51.55;33.83;;;;;;;;;;6211828;23;20008;-94
2023/11/13 18:30:14;;;;;;;72.28;38.67;;;;;;;;;;6233688;23;20004;-95
2023/11/13 18:32:44;;;;;;;53.00;33.90;;;;;;;;;;6230434;23;20012;-96
2023/11/13 18:35:36;;;;;;;48.67;32.70;;;;;;;;;;6234245;23;19988;-96
2023/11/13 18:41:02;;;;;;;61.97;35.75;;;;;;;;;;6256416;23;20507;-96
2023/11/13 18:43:29;;;;;;;57.35;35.30;;;;;;;;;;6256469;23;20004;-96
2023/11/13 18:46:02;;;;;;;64.82;38.30;;;;;;;;;;6258421;23;20012;-96
2023/11/13 18:51:43;;;;;;;68.82;40.78;;;;;;;;;;6259111;22;20051;-96
2023/11/13 18:54:14;;;;;;;72.70;42.13;;;;;;;;;;6106149;23;20002;-96
2023/11/13 18:56:47;;;;;;;70.55;41.33;;;;;;;;;;6060515;23;20018;-96
2023/11/13 18:59:42;;;;;;;;;;;;;;;;;;;;;
2023/11/13 19:02:19;;;;;;;63.60;38.85;;;;;;;;;;6101700;23;20037;-94
2023/11/13 19:08:17;;;;;;;84.68;45.22;;;;;;;;;;6130734;23;20020;-96
2023/11/13 19:10:45;;;;;;;54.75;34.97;;;;;;;;;;6228124;23;20004;-96
2023/11/13 19:13:11;;;;;;;86.32;44.50;;;;;;;;;;6223696;23;20007;-95
2023/11/13 19:15:38;;;;;;;90.25;48.78;;;;;;;;;;6225353;23;20112;-94
2023/11/13 19:18:06;;;;;;;61.25;38.85;;;;;;;;;;6251899;23;20444;-96
2023/11/13 19:20:38;;;;;;;59.72;36.60;;;;;;;;;;6226100;23;20028;-95
2023/11/13 19:23:07;;;;;;;92.40;48.90;;;;;;;;;;6226549;23;20771;-96
2023/11/13 19:25:38;;;;;;;98.97;49.78;;;;;;;;;;6250507;23;20095;-95
2023/11/13 19:28:04;;;;;;;75.82;45.22;;;;;;;;;;6250499;23;20087;-95
2023/11/13 19:30:42;;;;;;;101.90;52.42;;;;;;;;;;6251338;23;20008;-94
2023/11/13 19:33:51;;;;;;;79.30;47.45;;;;;;;;;;6252660;23;20332;-94
2023/11/13 19:36:21;;;;;;;92.85;50.08;;;;;;;;;;6240558;23;20012;-94
2023/11/13 19:38:56;;;;;;;104.32;53.72;;;;;;;;;;6231454;23;20017;-96
2023/11/13 19:41:26;;;;;;;70.95;41.58;;;;;;;;;;6272373;22;20024;-95
2023/11/13 19:43:57;;;;;;;78.10;45.47;;;;;;;;;;6257615;23;20020;-95
2023/11/13 19:46:29;;;;;;;62.88;40.17;;;;;;;;;;6249268;23;20012;-94
2023/11/13 19:49:14;;;;;;;85.57;49.63;;;;;;;;;;6253636;22;20001;-94
2023/11/13 19:51:41;;;;;;;89.63;50.03;;;;;;;;;;6246946;23;20028;-94
2023/11/13 19:54:23;;;;;;;85.80;49.08;;;;;;;;;;6253412;23;20063;-95
2023/11/13 19:56:50;;;;;;;72.20;45.25;;;;;;;;;;6251272;23;20011;-93
2023/11/13 19:59:17;;;;;;;84.07;49.25;;;;;;;;;;6248618;23;20015;-96
2023/11/13 20:01:50;;;;;;;82.45;45.80;;;;;;;;;;6224053;23;20004;-94
2023/11/13 20:04:20;;;;;;;97.75;50.67;;;;;;;;;;6246807;23;20091;-94
2023/11/13 20:06:53;;;;;;;83.57;45.47;;;;;;;;;;6248588;23;20031;-93
2023/11/13 20:09:33;;;;;;;75.68;45.05;;;;;;;;;;6246796;23;20007;-93
2023/11/13 20:12:17;;;;;;;82.18;45.63;;;;;;;;;;6238767;22;20024;-94
2023/11/13 20:14:50;;;;;;;73.82;43.50;;;;;;;;;;6212312;23;20086;-93
2023/11/13 20:17:23;;;;;;;66.50;40.43;;;;;;;;;;6223036;23;20032;-94
2023/11/13 20:20:19;;;;;;;93.43;47.85;;;;;;;;;;6225039;23;20250;-93
2023/11/13 20:23:13;;;;;;;52.05;35.00;;;;;;;;;;6199258;23;20011;-96
2023/11/13 20:26:11;;;;;;;66.72;37.67;;;;;;;;;;6224961;23;20012;-95
2023/11/13 20:28:37;;;;;;;54.30;33.72;;;;;;;;;;6253537;23;20027;-94
2023/11/13 20:31:26;;;;;;;73.20;42.13;;;;;;;;;;6250930;23;20008;-94
2023/11/13 20:34:09;;;;;;;64.13;37.05;;;;;;;;;;6252425;23;20000;-96
2023/11/13 20:36:42;;;;;;;87.03;43.33;;;;;;;;;;6225880;23;20077;-94
2023/11/13 20:39:08;;;;;;;64.07;37.30;;;;;;;;;;6250702;23;20008;-94
2023/11/13 20:41:43;;;;;;;85.35;44.15;;;;;;;;;;6254955;23;20008;-95
2023/11/13 20:44:12;;;;;;;79.57;41.22;;;;;;;;;;6223694;23;20034;-93
2023/11/13 20:53:27;;;;;;;79.07;40.25;;;;;;;;;;6137365;23;20002;-96
2023/11/13 20:59:24;;;;;;;98.63;42.95;;;;;;;;;;6005473;23;20010;-95
2023/11/13 21:01:53;;;;;;;88.32;43.22;;;;;;;;;;6106958;23;20092;-94
2023/11/13 21:04:20;;;;;;;80.85;40.47;;;;;;;;;;6190954;23;20067;-93
2023/11/13 21:07:00;;;;;;;105.53;46.33;;;;;;;;;;6240282;22;20016;-96
2023/11/13 21:09:39;;;;;;;79.82;40.80;;;;;;;;;;6231340;23;20004;-95
2023/11/13 21:12:20;;;;;;;80.55;41.63;;;;;;;;;;6230009;23;20016;-96
2023/11/13 21:14:59;;;;;;;83.55;42.38;;;;;;;;;;6227536;23;20456;-96
2023/11/13 21:17:32;;;;;;;75.53;39.70;;;;;;;;;;6228752;23;20011;-96
2023/11/13 21:37:43;;;;;;;65.65;36.08;;;;;;;;;;6300163;22;20011;-96
2023/11/13 21:43:00;;;;;;;101.07;41.75;;;;;;;;;;6296551;22;20107;-96
2023/11/13 21:45:27;;;;;;;69.85;36.97;;;;;;;;;;6268313;22;20106;-95
2023/11/13 21:47:56;;;;;;;53.17;31.38;;;;;;;;;;6271103;22;19993;-96
2023/11/13 21:50:22;;;;;;;81.38;39.13;;;;;;;;;;6263861;22;20027;-94
2023/11/13 22:15:17;;;;;;;73.82;38.08;;;;;;;;;;6261008;23;20376;-93
2023/11/13 22:17:58;;;;;;;63.53;36.28;;;;;;;;;;6230845;23;20000;-96
2023/11/13 22:32:13;;;;;;;80.78;39.75;;;;;;;;;;6287282;22;20091;-93
2023/11/13 22:46:48;;;;;;;71.40;36.67;;;;;;;;;;6298808;22;20034;-93
2023/11/13 22:49:14;;;;;;;71.53;39.67;;;;;;;;;;6265838;22;19983;-95
2023/11/13 22:51:40;;;;;;;82.05;42.72;;;;;;;;;;6249084;22;20020;-94
2023/11/13 23:02:24;;;;;;;77.10;39.30;;;;;;;;;;6265410;22;20078;-95
2023/11/13 23:18:54;;;;;;;40.47;25.48;;;;;;;;;;6263769;23;19999;-96
2023/11/13 23:36:15;;;;;;;79.20;37.15;;;;;;;;;;6218728;22;21294;-96
